createdAt,value
2019-01-27T00:00:22.225Z,22.73
2019-01-27T00:00:54.195Z,22.78
2019-01-27T00:01:26.166Z,22.76
2019-01-27T00:01:58.150Z,22.73
2019-01-27T00:02:30.127Z,22.66
2019-01-27T00:03:02.147Z,22.75
2019-01-27T00:03:34.165Z,22.7
2019-01-27T00:04:06.157Z,22.71
2019-01-27T00:04:38.143Z,22.76
2019-01-27T00:05:10.120Z,22.73
2019-01-27T00:05:42.106Z,22.73
2019-01-27T00:06:14.090Z,22.85
2019-01-27T00:06:46.064Z,22.75
2019-01-27T00:07:18.039Z,22.71
2019-01-27T00:07:50.036Z,22.7
2019-01-27T00:08:22.033Z,22.69
2019-01-27T00:08:54.014Z,22.75
2019-01-27T00:09:25.978Z,22.75
2019-01-27T00:09:57.947Z,22.73
2019-01-27T00:10:29.940Z,22.75
2019-01-27T00:11:01.936Z,22.75
2019-01-27T00:11:33.924Z,22.7
2019-01-27T00:12:05.899Z,22.69
2019-01-27T00:12:37.873Z,22.75
2019-01-27T00:13:09.843Z,22.76
2019-01-27T00:13:41.819Z,22.76
2019-01-27T00:14:13.824Z,22.71
2019-01-27T00:14:45.790Z,22.7
2019-01-27T00:15:17.784Z,22.75
2019-01-27T00:15:49.827Z,22.64
2019-01-27T00:16:21.845Z,22.78
2019-01-27T00:16:53.824Z,22.66
2019-01-27T00:17:25.879Z,22.7
2019-01-27T00:17:57.866Z,22.78
2019-01-27T00:18:29.847Z,22.66
2019-01-27T00:19:01.817Z,22.69
2019-01-27T00:19:34.563Z,22.76
2019-01-27T00:20:06.572Z,22.7
2019-01-27T00:20:38.545Z,22.7
2019-01-27T00:21:10.532Z,22.71
2019-01-27T00:21:42.500Z,22.76
2019-01-27T00:22:14.479Z,22.76
2019-01-27T00:22:46.264Z,22.67
2019-01-27T00:23:18.290Z,22.75
2019-01-27T00:23:50.266Z,22.76
2019-01-27T00:24:22.241Z,22.69
2019-01-27T00:24:54.217Z,22.73
2019-01-27T00:25:26.179Z,22.73
2019-01-27T00:25:58.150Z,22.7
2019-01-27T00:26:30.113Z,22.71
2019-01-27T00:27:02.103Z,22.75
2019-01-27T00:27:34.122Z,22.7
2019-01-27T00:28:06.100Z,22.73
2019-01-27T00:28:38.088Z,22.67
2019-01-27T00:29:10.078Z,22.67
2019-01-27T00:29:42.042Z,22.78
2019-01-27T00:30:14.013Z,22.7
2019-01-27T00:30:45.983Z,22.75
2019-01-27T00:31:17.951Z,22.73
2019-01-27T00:31:49.934Z,22.73
2019-01-27T00:32:21.895Z,22.75
2019-01-27T00:32:53.863Z,22.69
2019-01-27T00:33:25.855Z,22.76
2019-01-27T00:33:57.817Z,22.7
2019-01-27T00:34:29.796Z,22.75
2019-01-27T00:35:01.775Z,22.75
2019-01-27T00:35:33.763Z,22.71
2019-01-27T00:36:05.751Z,22.75
2019-01-27T00:36:37.755Z,22.71
2019-01-27T00:37:09.770Z,22.71
2019-01-27T00:37:41.747Z,22.7
2019-01-27T00:38:13.717Z,22.7
2019-01-27T00:38:45.697Z,22.73
2019-01-27T00:39:17.686Z,22.69
2019-01-27T00:39:49.652Z,22.75
2019-01-27T00:40:21.619Z,22.75
2019-01-27T00:40:53.638Z,22.7
2019-01-27T00:41:25.638Z,22.71
2019-01-27T00:41:57.614Z,22.69
2019-01-27T00:42:29.582Z,22.67
2019-01-27T00:43:01.570Z,22.7
2019-01-27T00:43:33.553Z,22.71
2019-01-27T00:44:05.522Z,22.7
2019-01-27T00:44:37.494Z,22.75
2019-01-27T00:45:09.486Z,22.7
2019-01-27T00:45:41.469Z,22.69
2019-01-27T00:46:13.463Z,22.76
2019-01-27T00:46:45.456Z,22.7
2019-01-27T00:47:17.427Z,22.7
2019-01-27T00:47:49.422Z,22.69
2019-01-27T00:48:21.402Z,22.66
2019-01-27T00:48:53.381Z,22.78
2019-01-27T00:49:25.356Z,22.67
2019-01-27T00:49:57.338Z,22.71
2019-01-27T00:50:29.309Z,22.71
2019-01-27T00:51:01.302Z,22.73
2019-01-27T00:51:33.277Z,22.73
2019-01-27T00:52:05.238Z,22.75
2019-01-27T00:52:37.259Z,22.7
2019-01-27T00:53:09.234Z,22.76
2019-01-27T00:53:41.216Z,22.67
2019-01-27T00:54:13.192Z,22.73
2019-01-27T00:54:45.178Z,22.7
2019-01-27T00:55:17.142Z,22.73
2019-01-27T00:55:49.129Z,22.75
2019-01-27T00:56:21.109Z,22.75
2019-01-27T00:56:53.076Z,22.73
2019-01-27T00:57:25.036Z,22.71
2019-01-27T00:57:57.039Z,22.69
2019-01-27T00:58:29.026Z,22.71
2019-01-27T00:59:01.007Z,22.71
2019-01-27T00:59:32.984Z,22.76
2019-01-27T01:00:04.974Z,22.71
2019-01-27T01:00:36.945Z,22.7
2019-01-27T01:01:08.904Z,22.71
2019-01-27T01:01:40.882Z,22.73
2019-01-27T01:02:12.857Z,22.71
2019-01-27T01:02:44.822Z,22.71
2019-01-27T01:03:16.805Z,22.69
2019-01-27T01:03:48.776Z,22.71
2019-01-27T01:04:20.744Z,22.79
2019-01-27T01:04:52.720Z,22.79
2019-01-27T01:05:24.695Z,22.71
2019-01-27T01:05:56.675Z,22.7
2019-01-27T01:06:28.688Z,22.71
2019-01-27T01:07:00.660Z,22.69
2019-01-27T01:07:32.651Z,22.7
2019-01-27T01:08:04.623Z,22.71
2019-01-27T01:08:36.596Z,22.71
2019-01-27T01:09:08.596Z,22.73
2019-01-27T01:09:40.595Z,22.7
2019-01-27T01:10:12.555Z,22.73
2019-01-27T01:10:44.527Z,22.69
2019-01-27T01:11:16.493Z,22.73
2019-01-27T01:11:48.483Z,22.75
2019-01-27T01:12:20.442Z,22.67
2019-01-27T01:12:52.415Z,22.7
2019-01-27T01:13:24.429Z,22.76
2019-01-27T01:13:56.405Z,22.67
2019-01-27T01:14:28.381Z,22.67
2019-01-27T01:15:00.365Z,22.76
2019-01-27T01:15:32.345Z,22.69
2019-01-27T01:16:04.317Z,22.66
2019-01-27T01:16:36.299Z,22.76
2019-01-27T01:17:08.268Z,22.69
2019-01-27T01:17:40.285Z,22.71
2019-01-27T01:18:12.273Z,22.79
2019-01-27T01:18:44.322Z,22.71
2019-01-27T01:19:16.306Z,22.69
2019-01-27T01:19:48.314Z,22.73
2019-01-27T01:20:44.606Z,22.69
2019-01-27T01:21:16.597Z,22.71
2019-01-27T01:21:48.593Z,22.75
2019-01-27T01:22:20.567Z,22.75
2019-01-27T01:22:52.546Z,22.7
2019-01-27T01:23:24.519Z,22.69
2019-01-27T01:23:56.535Z,22.75
2019-01-27T01:24:28.510Z,22.69
2019-01-27T01:25:00.473Z,22.71
2019-01-27T01:25:32.454Z,22.69
2019-01-27T01:26:04.424Z,22.75
2019-01-27T01:26:36.400Z,22.7
2019-01-27T01:27:08.362Z,22.7
2019-01-27T01:27:40.344Z,22.7
2019-01-27T01:28:13.088Z,22.75
2019-01-27T01:28:45.069Z,22.78
2019-01-27T01:29:17.060Z,22.67
2019-01-27T01:29:49.058Z,22.75
2019-01-27T01:30:21.020Z,22.71
2019-01-27T01:30:52.998Z,22.73
2019-01-27T01:31:24.987Z,22.73
2019-01-27T01:31:58.502Z,22.78
2019-01-27T01:32:30.480Z,22.7
2019-01-27T01:33:02.453Z,22.67
2019-01-27T01:33:34.425Z,22.79
2019-01-27T01:34:06.420Z,22.69
2019-01-27T01:34:38.390Z,22.7
2019-01-27T01:35:10.365Z,22.7
2019-01-27T01:35:42.346Z,22.73
2019-01-27T01:36:14.334Z,22.78
2019-01-27T01:36:46.305Z,22.67
2019-01-27T01:37:18.265Z,22.69
2019-01-27T01:37:50.258Z,22.71
2019-01-27T01:38:22.224Z,22.75
2019-01-27T01:38:54.183Z,22.71
2019-01-27T01:39:26.172Z,22.76
2019-01-27T01:39:58.161Z,22.82
2019-01-27T01:40:30.144Z,22.76
2019-01-27T01:41:02.112Z,22.66
2019-01-27T01:41:34.129Z,22.71
2019-01-27T01:42:06.105Z,22.76
2019-01-27T01:42:38.087Z,22.81
2019-01-27T01:43:10.049Z,22.78
2019-01-27T01:43:42.025Z,22.76
2019-01-27T01:44:14.025Z,22.75
2019-01-27T01:44:45.997Z,22.78
2019-01-27T01:45:17.981Z,22.71
2019-01-27T01:45:49.951Z,22.69
2019-01-27T01:46:21.913Z,22.78
2019-01-27T01:46:53.888Z,22.75
2019-01-27T01:47:25.862Z,22.75
2019-01-27T01:47:57.835Z,22.78
2019-01-27T01:48:29.793Z,22.79
2019-01-27T01:49:01.760Z,22.82
2019-01-27T01:49:33.743Z,22.66
2019-01-27T01:50:05.705Z,22.78
2019-01-27T01:50:37.666Z,22.69
2019-01-27T01:51:09.627Z,22.71
2019-01-27T01:51:41.595Z,22.75
2019-01-27T01:52:13.559Z,22.82
2019-01-27T01:52:45.547Z,22.69
2019-01-27T01:53:17.517Z,22.71
2019-01-27T01:53:49.495Z,22.73
2019-01-27T01:54:21.454Z,22.79
2019-01-27T01:54:53.456Z,22.7
2019-01-27T01:55:25.430Z,22.78
2019-01-27T01:55:57.395Z,22.73
2019-01-27T01:56:29.369Z,22.78
2019-01-27T01:57:01.345Z,22.78
2019-01-27T01:57:33.306Z,22.73
2019-01-27T01:58:05.298Z,22.81
2019-01-27T01:58:37.276Z,22.69
2019-01-27T01:59:09.250Z,22.69
2019-01-27T01:59:41.234Z,22.84
2019-01-27T02:00:13.225Z,22.78
2019-01-27T02:00:45.202Z,22.78
2019-01-27T02:01:17.201Z,22.84
2019-01-27T02:01:49.190Z,22.84
2019-01-27T02:02:21.153Z,22.84
2019-01-27T02:02:53.126Z,22.75
2019-01-27T02:03:25.111Z,22.82
2019-01-27T02:03:57.074Z,22.71
2019-01-27T02:04:29.048Z,22.82
2019-01-27T02:05:01.031Z,22.79
2019-01-27T02:05:33.001Z,22.82
2019-01-27T02:06:04.974Z,22.84
2019-01-27T02:06:36.974Z,22.7
2019-01-27T02:07:08.952Z,22.86
2019-01-27T02:07:40.940Z,22.69
2019-01-27T02:08:12.973Z,22.85
2019-01-27T02:08:44.952Z,22.78
2019-01-27T02:09:16.935Z,22.81
2019-01-27T02:09:48.903Z,22.85
2019-01-27T02:10:20.882Z,22.81
2019-01-27T02:10:52.838Z,22.85
2019-01-27T02:11:24.804Z,22.81
2019-01-27T02:11:56.811Z,22.73
2019-01-27T02:12:28.780Z,22.82
2019-01-27T02:13:00.729Z,22.84
2019-01-27T02:13:32.723Z,22.78
2019-01-27T02:14:04.697Z,22.78
2019-01-27T02:14:36.679Z,22.81
2019-01-27T02:15:08.672Z,22.85
2019-01-27T02:15:40.647Z,22.85
2019-01-27T02:16:12.613Z,22.78
2019-01-27T02:16:44.588Z,22.81
2019-01-27T02:17:16.623Z,22.78
2019-01-27T02:17:48.893Z,22.85
2019-01-27T02:18:20.865Z,22.85
2019-01-27T02:18:52.840Z,22.76
2019-01-27T02:19:24.806Z,22.81
2019-01-27T02:19:56.775Z,22.78
2019-01-27T02:20:28.813Z,22.75
2019-01-27T02:21:00.805Z,22.79
2019-01-27T02:21:32.797Z,22.84
2019-01-27T02:22:04.785Z,22.82
2019-01-27T02:22:36.752Z,22.79
2019-01-27T02:23:08.744Z,22.81
2019-01-27T02:23:40.729Z,22.79
2019-01-27T02:24:12.715Z,22.85
2019-01-27T02:24:44.711Z,22.78
2019-01-27T02:25:16.682Z,22.84
2019-01-27T02:25:48.640Z,22.85
2019-01-27T02:26:20.623Z,22.84
2019-01-27T02:26:52.587Z,22.81
2019-01-27T02:27:24.555Z,22.82
2019-01-27T02:27:56.537Z,22.76
2019-01-27T02:28:28.515Z,22.78
2019-01-27T02:29:00.504Z,22.81
2019-01-27T02:29:32.481Z,22.82
2019-01-27T02:30:04.460Z,22.86
2019-01-27T02:30:36.428Z,22.82
2019-01-27T02:31:08.388Z,22.76
2019-01-27T02:31:40.393Z,22.82
2019-01-27T02:32:12.375Z,22.79
2019-01-27T02:32:44.366Z,22.85
2019-01-27T02:33:16.347Z,22.84
2019-01-27T02:33:48.351Z,22.85
2019-01-27T02:34:20.339Z,22.79
2019-01-27T02:34:52.331Z,22.81
2019-01-27T02:35:24.316Z,22.78
2019-01-27T02:35:56.289Z,22.76
2019-01-27T02:36:28.256Z,22.84
2019-01-27T02:37:00.236Z,22.85
2019-01-27T02:37:32.233Z,22.86
2019-01-27T02:38:04.199Z,22.86
2019-01-27T02:38:36.158Z,22.85
2019-01-27T02:39:08.155Z,22.82
2019-01-27T02:39:40.146Z,22.78
2019-01-27T02:40:12.146Z,22.86
2019-01-27T02:40:44.182Z,22.85
2019-01-27T02:41:16.158Z,22.84
2019-01-27T02:41:48.129Z,22.75
2019-01-27T02:42:20.142Z,22.81
2019-01-27T02:42:52.118Z,22.81
2019-01-27T02:43:24.092Z,22.85
2019-01-27T02:43:56.117Z,22.84
2019-01-27T02:44:28.097Z,22.84
2019-01-27T02:45:00.087Z,22.85
2019-01-27T02:45:32.117Z,22.79
2019-01-27T02:46:04.101Z,22.85
2019-01-27T02:46:36.070Z,22.85
2019-01-27T02:47:08.038Z,22.84
2019-01-27T02:47:40.029Z,22.85
2019-01-27T02:48:12.028Z,22.84
2019-01-27T02:48:44.039Z,22.85
2019-01-27T02:49:16.008Z,22.89
2019-01-27T02:49:47.965Z,22.78
2019-01-27T02:50:19.994Z,22.86
2019-01-27T02:50:51.984Z,22.89
2019-01-27T02:51:23.968Z,22.86
2019-01-27T02:51:55.939Z,22.85
2019-01-27T02:52:27.947Z,22.81
2019-01-27T02:52:59.916Z,22.86
2019-01-27T02:53:31.905Z,22.89
2019-01-27T02:54:03.879Z,22.84
2019-01-27T02:54:35.873Z,22.89
2019-01-27T02:55:07.840Z,22.81
2019-01-27T02:55:39.823Z,22.82
2019-01-27T02:56:11.799Z,22.81
2019-01-27T02:56:43.781Z,22.85
2019-01-27T02:57:15.756Z,22.82
2019-01-27T02:57:47.745Z,22.78
2019-01-27T02:58:19.723Z,22.85
2019-01-27T02:58:51.700Z,22.82
2019-01-27T02:59:23.690Z,22.81
2019-01-27T02:59:55.713Z,22.84
2019-01-27T03:00:27.712Z,22.86
2019-01-27T03:00:59.686Z,22.81
2019-01-27T03:01:31.672Z,22.86
2019-01-27T03:02:03.632Z,22.82
2019-01-27T03:02:35.601Z,22.81
2019-01-27T03:03:07.588Z,22.85
2019-01-27T03:03:39.551Z,22.82
2019-01-27T03:04:11.558Z,22.81
2019-01-27T03:04:43.543Z,22.85
2019-01-27T03:05:15.533Z,22.85
2019-01-27T03:05:47.505Z,22.88
2019-01-27T03:06:19.475Z,22.82
2019-01-27T03:06:51.439Z,22.88
2019-01-27T03:07:23.434Z,22.85
2019-01-27T03:07:55.409Z,22.84
2019-01-27T03:08:27.409Z,22.81
2019-01-27T03:08:59.391Z,22.82
2019-01-27T03:09:31.359Z,22.81
2019-01-27T03:10:03.328Z,22.88
2019-01-27T03:10:35.303Z,22.85
2019-01-27T03:11:07.300Z,22.88
2019-01-27T03:11:39.280Z,22.88
2019-01-27T03:12:11.253Z,22.82
2019-01-27T03:12:43.219Z,22.88
2019-01-27T03:13:15.226Z,22.85
2019-01-27T03:13:47.265Z,22.88
2019-01-27T03:14:19.264Z,22.84
2019-01-27T03:14:51.256Z,22.86
2019-01-27T03:15:23.227Z,22.79
2019-01-27T03:15:55.199Z,22.82
2019-01-27T03:16:27.172Z,22.84
2019-01-27T03:16:59.165Z,22.82
2019-01-27T03:17:31.142Z,22.88
2019-01-27T03:18:03.138Z,22.86
2019-01-27T03:18:35.111Z,22.82
2019-01-27T03:19:07.149Z,22.84
2019-01-27T03:19:39.662Z,22.85
2019-01-27T03:20:11.668Z,22.86
2019-01-27T03:20:43.661Z,22.86
2019-01-27T03:21:15.638Z,22.82
2019-01-27T03:21:47.621Z,22.89
2019-01-27T03:22:19.606Z,22.81
2019-01-27T03:22:51.582Z,22.86
2019-01-27T03:23:23.568Z,22.86
2019-01-27T03:23:55.541Z,22.82
2019-01-27T03:24:27.513Z,22.86
2019-01-27T03:24:59.522Z,22.92
2019-01-27T03:25:31.479Z,22.82
2019-01-27T03:26:03.443Z,22.82
2019-01-27T03:26:35.412Z,22.86
2019-01-27T03:27:07.405Z,22.88
2019-01-27T03:27:39.361Z,22.88
2019-01-27T03:28:11.337Z,22.86
2019-01-27T03:28:43.325Z,22.86
2019-01-27T03:29:15.307Z,22.84
2019-01-27T03:29:47.284Z,22.86
2019-01-27T03:30:19.260Z,22.88
2019-01-27T03:30:51.288Z,22.84
2019-01-27T03:31:23.312Z,22.88
2019-01-27T03:31:55.322Z,22.81
2019-01-27T03:32:27.516Z,22.88
2019-01-27T03:32:59.561Z,22.89
2019-01-27T03:33:31.558Z,22.88
2019-01-27T03:34:03.535Z,22.89
2019-01-27T03:34:35.521Z,22.88
2019-01-27T03:35:07.495Z,22.84
2019-01-27T03:35:39.468Z,22.85
2019-01-27T03:36:11.429Z,22.86
2019-01-27T03:36:43.403Z,22.89
2019-01-27T03:37:15.447Z,22.82
2019-01-27T03:37:47.442Z,22.91
2019-01-27T03:38:19.442Z,22.84
2019-01-27T03:38:51.440Z,22.89
2019-01-27T03:39:23.413Z,22.86
2019-01-27T03:39:55.401Z,22.88
2019-01-27T03:40:27.380Z,22.85
2019-01-27T03:40:59.357Z,22.91
2019-01-27T03:41:31.344Z,22.82
2019-01-27T03:42:03.324Z,22.86
2019-01-27T03:42:35.301Z,22.84
2019-01-27T03:43:07.283Z,22.96
2019-01-27T03:43:39.277Z,22.92
2019-01-27T03:44:11.279Z,22.88
2019-01-27T03:44:43.250Z,22.82
2019-01-27T03:45:15.243Z,22.82
2019-01-27T03:45:47.241Z,22.89
2019-01-27T03:46:19.222Z,22.84
2019-01-27T03:46:51.196Z,22.86
2019-01-27T03:47:23.165Z,22.84
2019-01-27T03:47:55.134Z,22.82
2019-01-27T03:48:27.110Z,22.86
2019-01-27T03:48:59.077Z,22.82
2019-01-27T03:49:31.054Z,22.91
2019-01-27T03:50:03.019Z,22.92
2019-01-27T03:50:34.998Z,22.89
2019-01-27T03:51:06.967Z,22.85
2019-01-27T03:51:38.943Z,22.86
2019-01-27T03:52:10.922Z,22.81
2019-01-27T03:52:42.892Z,22.92
2019-01-27T03:53:14.866Z,22.92
2019-01-27T03:53:46.854Z,22.94
2019-01-27T03:54:18.804Z,22.88
2019-01-27T03:54:50.780Z,22.94
2019-01-27T03:55:22.763Z,22.89
2019-01-27T03:55:54.739Z,22.89
2019-01-27T03:56:26.718Z,22.91
2019-01-27T03:56:58.708Z,22.85
2019-01-27T03:57:30.670Z,22.88
2019-01-27T03:58:02.646Z,22.85
2019-01-27T03:58:35.469Z,22.89
2019-01-27T03:59:07.454Z,22.85
2019-01-27T03:59:39.426Z,22.81
2019-01-27T04:00:11.398Z,22.89
2019-01-27T04:00:43.360Z,22.85
2019-01-27T04:01:15.336Z,22.89
2019-01-27T04:01:47.329Z,22.88
2019-01-27T04:02:19.332Z,22.85
2019-01-27T04:02:51.326Z,22.88
2019-01-27T04:03:23.337Z,22.85
2019-01-27T04:03:55.328Z,22.89
2019-01-27T04:04:27.293Z,22.86
2019-01-27T04:04:59.284Z,22.92
2019-01-27T04:05:31.424Z,22.88
2019-01-27T04:06:03.413Z,22.91
2019-01-27T04:06:35.379Z,22.89
2019-01-27T04:07:07.385Z,22.88
2019-01-27T04:07:39.372Z,22.86
2019-01-27T04:08:11.355Z,22.81
2019-01-27T04:08:43.396Z,22.85
2019-01-27T04:09:15.381Z,22.89
2019-01-27T04:09:47.368Z,22.92
2019-01-27T04:10:19.356Z,22.86
2019-01-27T04:10:51.375Z,22.91
2019-01-27T04:11:23.366Z,22.88
2019-01-27T04:11:55.370Z,22.88
2019-01-27T04:12:27.373Z,22.92
2019-01-27T04:12:59.380Z,22.88
2019-01-27T04:13:31.343Z,22.86
2019-01-27T04:14:03.329Z,22.82
2019-01-27T04:14:35.301Z,22.81
2019-01-27T04:15:07.345Z,22.88
2019-01-27T04:15:39.336Z,22.92
2019-01-27T04:16:11.335Z,22.89
2019-01-27T04:16:43.303Z,22.89
2019-01-27T04:17:15.309Z,22.85
2019-01-27T04:17:47.298Z,22.85
2019-01-27T04:18:19.274Z,22.85
2019-01-27T04:18:51.263Z,22.86
2019-01-27T04:19:23.246Z,22.81
2019-01-27T04:19:55.258Z,22.82
2019-01-27T04:20:27.239Z,22.88
2019-01-27T04:20:59.221Z,22.82
2019-01-27T04:21:31.195Z,22.84
2019-01-27T04:22:03.187Z,22.88
2019-01-27T04:22:35.182Z,22.79
2019-01-27T04:23:07.191Z,22.81
2019-01-27T04:23:39.194Z,22.86
2019-01-27T04:24:11.203Z,22.82
2019-01-27T04:24:43.170Z,22.86
2019-01-27T04:25:15.142Z,22.86
2019-01-27T04:25:47.145Z,22.82
2019-01-27T04:26:19.122Z,22.82
2019-01-27T04:26:51.089Z,22.85
2019-01-27T04:27:23.036Z,22.85
2019-01-27T04:27:55.046Z,22.86
2019-01-27T04:28:27.026Z,22.82
2019-01-27T04:28:59.027Z,22.89
2019-01-27T04:29:30.990Z,22.84
2019-01-27T04:30:02.972Z,22.85
2019-01-27T04:30:34.963Z,22.84
2019-01-27T04:31:06.956Z,22.89
2019-01-27T04:31:38.982Z,22.81
2019-01-27T04:32:10.979Z,22.82
2019-01-27T04:32:42.971Z,22.88
2019-01-27T04:33:14.977Z,22.88
2019-01-27T04:33:46.959Z,22.78
2019-01-27T04:34:18.944Z,22.86
2019-01-27T04:34:50.906Z,22.89
2019-01-27T04:35:22.878Z,22.88
2019-01-27T04:35:54.858Z,22.86
2019-01-27T04:36:26.833Z,22.89
2019-01-27T04:36:58.815Z,22.89
2019-01-27T04:37:30.810Z,22.82
2019-01-27T04:38:02.787Z,22.84
2019-01-27T04:38:34.769Z,22.86
2019-01-27T04:39:06.753Z,22.85
2019-01-27T04:39:38.745Z,22.85
2019-01-27T04:40:10.726Z,22.82
2019-01-27T04:40:42.682Z,22.82
2019-01-27T04:41:14.645Z,22.85
2019-01-27T04:41:46.639Z,22.88
2019-01-27T04:42:18.624Z,22.85
2019-01-27T04:42:50.576Z,22.86
2019-01-27T04:43:22.553Z,22.99
2019-01-27T04:43:56.384Z,22.86
2019-01-27T04:44:28.517Z,22.86
2019-01-27T04:45:00.487Z,22.79
2019-01-27T04:45:32.485Z,22.92
2019-01-27T04:46:04.461Z,22.92
2019-01-27T04:46:36.440Z,22.86
2019-01-27T04:47:08.449Z,22.91
2019-01-27T04:47:40.444Z,22.85
2019-01-27T04:48:12.428Z,22.86
2019-01-27T04:48:44.408Z,22.88
2019-01-27T04:49:16.401Z,22.85
2019-01-27T04:49:48.395Z,22.85
2019-01-27T04:50:20.362Z,22.85
2019-01-27T04:50:52.347Z,22.86
2019-01-27T04:51:24.321Z,22.89
2019-01-27T04:51:56.322Z,22.92
2019-01-27T04:52:28.299Z,22.89
2019-01-27T04:53:00.266Z,22.85
2019-01-27T04:53:32.244Z,22.84
2019-01-27T04:54:04.230Z,22.84
2019-01-27T04:54:36.208Z,22.89
2019-01-27T04:55:08.197Z,22.89
2019-01-27T04:55:40.185Z,22.82
2019-01-27T04:56:12.182Z,22.85
2019-01-27T04:56:44.167Z,22.88
2019-01-27T04:57:16.141Z,22.86
2019-01-27T04:57:48.114Z,22.88
2019-01-27T04:58:20.090Z,22.86
2019-01-27T04:58:52.082Z,22.92
2019-01-27T04:59:24.051Z,22.89
2019-01-27T04:59:56.016Z,22.88
2019-01-27T05:00:28.006Z,22.88
2019-01-27T05:00:59.974Z,22.89
2019-01-27T05:01:31.958Z,22.86
2019-01-27T05:02:03.941Z,22.81
2019-01-27T05:02:35.913Z,22.86
2019-01-27T05:03:07.902Z,22.92
2019-01-27T05:03:39.871Z,22.89
2019-01-27T05:04:11.855Z,22.88
2019-01-27T05:04:43.811Z,22.89
2019-01-27T05:05:15.782Z,22.89
2019-01-27T05:05:47.790Z,22.88
2019-01-27T05:06:19.749Z,22.91
2019-01-27T05:06:51.743Z,22.94
2019-01-27T05:07:23.722Z,22.89
2019-01-27T05:07:55.721Z,22.85
2019-01-27T05:08:27.722Z,22.84
2019-01-27T05:08:59.704Z,22.88
2019-01-27T05:09:31.682Z,22.96
2019-01-27T05:10:03.666Z,22.89
2019-01-27T05:10:35.641Z,22.92
2019-01-27T05:11:07.622Z,22.92
2019-01-27T05:11:39.629Z,22.94
2019-01-27T05:12:11.604Z,22.94
2019-01-27T05:12:43.586Z,22.91
2019-01-27T05:13:15.559Z,22.89
2019-01-27T05:13:47.560Z,22.89
2019-01-27T05:14:19.560Z,22.92
2019-01-27T05:14:51.534Z,22.92
2019-01-27T05:15:23.511Z,22.89
2019-01-27T05:15:55.513Z,22.89
2019-01-27T05:16:27.493Z,22.96
2019-01-27T05:16:59.482Z,22.91
2019-01-27T05:17:31.474Z,22.96
2019-01-27T05:18:03.452Z,22.96
2019-01-27T05:18:35.417Z,22.94
2019-01-27T05:19:07.389Z,22.92
2019-01-27T05:19:39.422Z,22.91
2019-01-27T05:20:11.397Z,22.94
2019-01-27T05:20:43.374Z,22.94
2019-01-27T05:21:15.335Z,22.92
2019-01-27T05:21:47.332Z,22.92
2019-01-27T05:22:19.306Z,22.94
2019-01-27T05:22:51.297Z,22.88
2019-01-27T05:23:23.282Z,22.88
2019-01-27T05:23:55.260Z,22.97
2019-01-27T05:24:27.252Z,22.96
2019-01-27T05:24:59.228Z,22.92
2019-01-27T05:25:31.379Z,22.94
2019-01-27T05:26:03.376Z,22.88
2019-01-27T05:26:35.432Z,22.89
2019-01-27T05:27:07.428Z,22.91
2019-01-27T05:27:39.412Z,22.96
2019-01-27T05:28:11.409Z,22.96
2019-01-27T05:28:43.376Z,22.92
2019-01-27T05:29:15.357Z,22.91
2019-01-27T05:29:47.337Z,22.91
2019-01-27T05:30:19.328Z,22.94
2019-01-27T05:30:51.323Z,22.86
2019-01-27T05:31:23.299Z,22.96
2019-01-27T05:31:55.274Z,22.91
2019-01-27T05:32:27.255Z,22.86
2019-01-27T05:32:59.238Z,22.86
2019-01-27T05:33:31.233Z,22.92
2019-01-27T05:34:03.247Z,22.91
2019-01-27T05:34:35.219Z,22.96
2019-01-27T05:35:07.220Z,22.94
2019-01-27T05:35:39.193Z,22.96
2019-01-27T05:36:11.161Z,22.94
2019-01-27T05:36:43.123Z,22.86
2019-01-27T05:37:15.083Z,22.85
2019-01-27T05:37:47.053Z,22.88
2019-01-27T05:38:19.015Z,22.94
2019-01-27T05:38:51.027Z,22.96
2019-01-27T05:39:22.986Z,22.89
2019-01-27T05:39:54.967Z,22.91
2019-01-27T05:40:26.943Z,22.89
2019-01-27T05:40:58.990Z,22.94
2019-01-27T05:41:30.949Z,22.99
2019-01-27T05:42:02.925Z,22.96
2019-01-27T05:42:59.547Z,22.96
2019-01-27T05:43:31.528Z,22.91
2019-01-27T05:44:03.511Z,22.91
2019-01-27T05:44:35.507Z,22.91
2019-01-27T05:45:07.541Z,22.96
2019-01-27T05:45:39.503Z,22.91
2019-01-27T05:46:11.498Z,22.96
2019-01-27T05:46:43.466Z,22.99
2019-01-27T05:47:15.432Z,22.88
2019-01-27T05:47:47.433Z,22.89
2019-01-27T05:48:19.450Z,22.88
2019-01-27T05:48:51.422Z,22.97
2019-01-27T05:49:23.411Z,22.91
2019-01-27T05:49:55.390Z,22.99
2019-01-27T05:50:27.365Z,22.94
2019-01-27T05:50:59.331Z,22.91
2019-01-27T05:51:31.315Z,22.96
2019-01-27T05:52:03.297Z,22.94
2019-01-27T05:52:35.283Z,22.96
2019-01-27T05:53:07.274Z,22.97
2019-01-27T05:53:39.237Z,22.91
2019-01-27T05:54:11.246Z,22.92
2019-01-27T05:54:43.254Z,22.88
2019-01-27T05:55:15.309Z,22.91
2019-01-27T05:55:47.288Z,22.92
2019-01-27T05:56:19.286Z,22.94
2019-01-27T05:56:56.423Z,22.97
2019-01-27T05:57:28.550Z,22.96
2019-01-27T05:58:00.516Z,22.91
2019-01-27T05:58:32.487Z,22.94
2019-01-27T05:59:04.507Z,22.94
2019-01-27T05:59:36.485Z,22.88
2019-01-27T06:00:08.452Z,22.88
2019-01-27T06:00:40.451Z,22.91
2019-01-27T06:01:12.441Z,22.92
2019-01-27T06:01:44.423Z,22.91
2019-01-27T06:02:16.433Z,22.97
2019-01-27T06:02:48.385Z,22.97
2019-01-27T06:03:20.364Z,22.88
2019-01-27T06:03:52.345Z,22.96
2019-01-27T06:04:24.329Z,23
2019-01-27T06:04:56.298Z,22.89
2019-01-27T06:05:28.299Z,22.94
2019-01-27T06:06:00.268Z,22.96
2019-01-27T06:06:32.238Z,22.94
2019-01-27T06:07:04.214Z,22.89
2019-01-27T06:07:36.179Z,22.86
2019-01-27T06:08:08.141Z,22.97
2019-01-27T06:08:40.140Z,22.89
2019-01-27T06:09:12.109Z,22.92
2019-01-27T06:09:44.080Z,22.94
2019-01-27T06:10:16.040Z,22.89
2019-01-27T06:10:48.085Z,22.97
2019-01-27T06:11:20.054Z,22.91
2019-01-27T06:11:52.024Z,22.97
2019-01-27T06:12:23.793Z,22.92
2019-01-27T06:12:55.779Z,22.89
2019-01-27T06:13:27.741Z,22.91
2019-01-27T06:13:59.489Z,22.92
2019-01-27T06:14:31.470Z,22.88
2019-01-27T06:15:03.446Z,22.97
2019-01-27T06:15:35.437Z,22.88
2019-01-27T06:16:07.408Z,22.88
2019-01-27T06:16:39.428Z,22.96
2019-01-27T06:17:11.447Z,22.91
2019-01-27T06:17:43.408Z,22.88
2019-01-27T06:18:15.417Z,22.94
2019-01-27T06:18:47.471Z,22.94
2019-01-27T06:19:19.434Z,22.97
2019-01-27T06:19:51.431Z,22.91
2019-01-27T06:20:23.430Z,22.96
2019-01-27T06:20:55.404Z,22.94
2019-01-27T06:21:27.381Z,22.88
2019-01-27T06:21:59.351Z,22.94
2019-01-27T06:22:31.329Z,22.96
2019-01-27T06:23:03.297Z,22.86
2019-01-27T06:23:35.283Z,22.96
2019-01-27T06:24:07.260Z,22.94
2019-01-27T06:24:39.266Z,22.88
2019-01-27T06:25:11.243Z,22.88
2019-01-27T06:25:43.275Z,22.97
2019-01-27T06:26:15.279Z,22.97
2019-01-27T06:26:47.289Z,22.96
2019-01-27T06:27:19.303Z,22.97
2019-01-27T06:27:51.273Z,22.96
2019-01-27T06:28:23.239Z,22.96
2019-01-27T06:28:55.213Z,22.92
2019-01-27T06:29:27.226Z,22.86
2019-01-27T06:29:59.233Z,22.91
2019-01-27T06:30:31.215Z,22.91
2019-01-27T06:31:03.182Z,22.91
2019-01-27T06:31:35.169Z,22.97
2019-01-27T06:32:07.169Z,22.96
2019-01-27T06:32:40.073Z,22.96
2019-01-27T06:33:12.042Z,22.94
2019-01-27T06:33:44.020Z,22.97
2019-01-27T06:34:15.996Z,22.86
2019-01-27T06:34:47.964Z,22.96
2019-01-27T06:35:19.948Z,22.91
2019-01-27T06:35:51.919Z,22.88
2019-01-27T06:36:23.903Z,22.92
2019-01-27T06:36:55.871Z,22.96
2019-01-27T06:37:27.887Z,22.91
2019-01-27T06:37:59.869Z,22.96
2019-01-27T06:38:31.864Z,22.91
2019-01-27T06:39:03.832Z,22.88
2019-01-27T06:39:35.809Z,22.94
2019-01-27T06:40:07.778Z,22.92
2019-01-27T06:40:39.749Z,22.92
2019-01-27T06:41:11.722Z,22.91
2019-01-27T06:41:43.710Z,22.97
2019-01-27T06:42:15.674Z,22.91
2019-01-27T06:42:47.652Z,22.91
2019-01-27T06:43:19.617Z,22.86
2019-01-27T06:43:51.600Z,22.88
2019-01-27T06:44:23.574Z,22.88
2019-01-27T06:44:55.550Z,22.89
2019-01-27T06:45:27.506Z,22.96
2019-01-27T06:45:59.480Z,22.86
2019-01-27T06:46:31.466Z,22.89
2019-01-27T06:47:03.445Z,22.92
2019-01-27T06:47:35.418Z,22.92
2019-01-27T06:48:07.389Z,22.96
2019-01-27T06:48:39.385Z,22.91
2019-01-27T06:49:11.359Z,22.92
2019-01-27T06:49:43.392Z,22.92
2019-01-27T06:50:15.375Z,22.92
2019-01-27T06:50:47.354Z,22.91
2019-01-27T06:51:19.336Z,22.94
2019-01-27T06:51:51.349Z,22.91
2019-01-27T06:52:23.335Z,22.91
2019-01-27T06:52:55.313Z,22.92
2019-01-27T06:53:27.286Z,22.92